ENBL/FDE METAR and TAF weather

Enter ICAO airport designator
Station Type Date Time Source
ENBL METAR 2020/09/30 14:50 UTC NOAA

ENBL 301450Z 30003KT 9999 SCT050 BKN070 15/09 Q1009


Station Type Date Time Source
ENBL Decoded METAR 2020/09/30 14:50 UTC NOAA

Forde / Bringeland, Norway (ENBL) 61-27N 005-52E
Sep 30, 2020 - 10:50 AM EDT / 2020.09.30 1450 UTC
Wind: from the WNW (300 degrees) at 3 MPH (3 KT):0
Visibility: greater than 7 mile(s):0
Sky conditions: mostly cloudy
Temperature: 59 F (15 C)
Dew Point: 48 F (9 C)
Relative Humidity: 67%
Pressure (altimeter): 29.80 in. Hg (1009 hPa)
ob: ENBL 301450Z 30003KT 9999 SCT050 BKN070 15/09 Q1009
cycle: 15

Station Type Date Time Source
ENBL TAF UTC NOAA

Error!

Example: see airport list